Glenville, WV (26351)

1:57 PM EST on December 05, 2016 (GMT -0500)
Brooklyn Point | | Change Station

Elev 732 ft 38.94 °N, 80.84 °W | Updated 34 seconds ago

Overcast
Overcast
50.7 °F
Feels Like 50.7 °F
N
0.0
Wind Variable Wind from WNW

Today
High -- | Low -- °F
--% Chance of Precip.
Yesterday
High -- | Low -- °F
Precip. -- in
Pressure 30.05 in
Visibility 10.0 miles
Clouds Mostly Cloudy 2500 ft
Overcast 3000 ft
Dew Point 40 °F
Humidity 69%
Rainfall 0.00 in
Snow Depth Not available.
7:27 AM 5:01 PM
Waxing Crescent, 34% visible
METAR KW22 051835Z AUTO VRB04KT 10SM BKN025 OVC030 07/01 A3005 RMK AO2 PWINO
Pressure 30.05 in
Visibility 10.0 miles
Clouds Mostly Cloudy 2500 ft
Overcast 3000 ft
Dew Point 40 °F
Humidity 69%
Rainfall 0.00 in
Snow Depth Not available.
7:27 AM 5:01 PM
Waxing Crescent, 34% visible
METAR KW22 051835Z AUTO VRB04KT 10SM BKN025 OVC030 07/01 A3005 RMK AO2 PWINO

10-Day Weather Forecast

Almanac

Astronomy

Dec. 05, 2016 Rise Set
Actual Time
Civil Twilight
Nautical Twilight
Astronomical Twilight
Moon
Length of Visible Light
Length of Day
Tomorrow will be .
, % of the Moon is Illuminated

Today's Extremes

State Highs State Lows

Community

WunderPhotos

Upload Photos

1,955,851 photos uploaded!

WunderBlog® & News

Nearby

Air Quality

  Air Quality AQ Index Pollutant
Not available.

Snow Depth

Station Depth Elevation

Earthquake Activity

City Distance Mag. Time & Date
Minimum magnitude displayed is 2.5.

Coastal Water Temperatures

Place Temperature

Stations

Nearby Weather Stations

Station Location Temp. Windchill Dew Point Humidity Wind Precip. Elev Updated Type
                   

Watches & Warnings

There are currently no watches in effect.